Linn, WV (26384)

10:11 PM EDT on July 30, 2014 (GMT -0400)
Quirky Towers, Vadis (KWVALUMB2) Elev 837 ft | 39.04 °N, 80.71 °W | Change Station

Current weather conditions updated 1 minute ago

Clear
Clear
62.2 °F
Feels Like 62.2 °F
N
0.0
Wind Variable Wind from West
Gusts 0.0 mph

Tomorrow is forecast to be Cooler than today.

Today
High -- | Low -- °F
--% Chance of Precip.
Yesterday
High -- | Low -- °F
Precip. -- in
6:21 AM 8:36 PM
Waxing Crescent, 15% visible
Pressure 30.06 in
Visibility 8.0 miles
Clouds Clear
Dew Point 62 °F
Humidity 99%
Rainfall 0.15 in
Snow Depth Not available.
UV 0 out of 12
Pollen 5.50 out of 12
Air Quality Not available.
Flu Activity Not available.
METAR KCKB 310153Z 18003KT 8SM CLR 17/15 A3009 RMK AO2 SLP179 T01670150

More Conditions Fewer Conditions

Pressure 30.06 in
Visibility 8.0 miles
Clouds Clear
Dew Point 62 °F
Humidity 99%
Rainfall 0.15 in
Snow Depth Not available.
UV 0 out of 12
Pollen 5.50 out of 12
Air Quality Not available.
Flu Activity Not available.
METAR KCKB 310153Z 18003KT 8SM CLR 17/15 A3009 RMK AO2 SLP179 T01670150

More Conditions Fewer Conditions

10-Day Weather Forecast

Almanac

Astronomy

Jul. 30, 2014 Rise Set
Actual Time 6:21 AM EDT 8:36 PM EDT
Civil Twilight 5:52 AM EDT 9:05 PM EDT
Nautical Twilight 5:15 AM EDT 9:42 PM EDT
Astronomical Twilight 4:34 AM EDT 10:22 PM EDT
Moon 9:49 AM EDT (7/30) 10:20 PM EDT (7/30)
Length of Visible Light 15h 13m
Length of Day
14h 14m
Tomorrow will be 1m 51s shorter.
Waxing Crescent, 15% of the Moon is Illuminated
Today
Waxing Crescent
Aug 3
First Quarter
Aug 10
Full
Aug 17
Last Quarter
Aug 25
New

Today's Extremes

State Highs State Lows

Community

WunderPhotos

Upload Photos

1,739,269 photos uploaded!

Nearby

Snow Depth

Station Depth Elevation
No new snow has been reported.

Earthquake Activity

City Distance Mag. Time & Date
No recent earthquake activity has been reported nearby.
Minimum magnitude displayed is 2.5.

Coastal Water Temperatures

Place Temperature
No Stations Reporting

Nearby Weather Stations

Station Location Temp. Dew Point Humidity Wind Precip. Elev Updated Type
Quirky Towers, Vadis, Alum Bridge, WV 62.2 °F 62 °F 99% West  at  0.0 mph 0.00 in / hr 837 ft 10:10 PM EDT Normal
Brooklyn Point, Glenville, WV 63.1 °F 61 °F 94% NNW  at  0.0 mph - / hr 732 ft 8:56 PM CDT Normal
W8PY @ Harmony, West Union, WV 60.5 °F 59 °F 96% NNW  at  0.0 mph 0.00 in / hr 852 ft 10:06 PM EDT Normal
Grapevine Circle, Gassaway, WV 63.0 °F 60 °F 91% SW  at  0.0 mph 0.00 in / hr 1270 ft 10:10 PM EDT Normal
Frame Circle, Gassaway, WV 60.5 °F 59 °F 95% SW  at  0.0 mph 0.00 in / hr 890 ft 10:11 PM EDT Rapid Fire

Show More Stations Show Fewer Stations